Latest Weather Observations for Halls Creek

IDW60801

Issued at 10:43 pm WST Saturday 23 January 2021 (issued every 10 minutes, with the page automatically refreshed every 10 minutes)

About weather observations | Map of weather stations | Latest weather observations for WA | Other Formats
Station Details ID: 002079 Name: HALLS CREEK AIRPORT Lat: -18.23 Lon: 127.67 Height: 409.4 m
Data from the previous 72 hours. | See also: Recent months at Halls Creek
Date/Time
WST
Temp
°C
App
Temp
°C
Dew
Point
°C
Rel
Hum
%
Delta-T
°C
Wind Press
QNH
hPa
Press
MSL
hPa
Rain since
9am
mm
Dir  Spd
km/h
Gust
km/h
Spd
kts
Gust
kts
23/10:30pm 25.3 29.5 23.4 89 1.3 N 7 9 4 5 1008.7 1005.3 3.0
23/10:00pm 25.3 30.4 23.4 89 1.3 N 2 6 1 3 1009.0 1005.7 3.0
23/09:30pm 25.3 29.5 23.5 90 1.2 NNW 7 11 4 6 1009.3 1006.0 3.0
23/09:00pm 25.2 29.5 23.6 91 1.1 N 7 11 4 6 1009.2 1005.9 3.0
23/08:30pm 25.0 28.7 23.2 90 1.2 N 9 11 5 6 1008.9 1005.6 3.0
23/08:00pm 25.1 29.2 23.3 90 1.2 NE 7 11 4 6 1008.8 1005.4 3.0
23/07:30pm 25.0 28.9 22.9 88 1.4 NNW 7 13 4 7 1008.1 1004.7 2.8
23/07:00pm 24.9 29.4 23.0 89 1.3 N 4 7 2 4 1007.9 1004.5 2.6
23/06:30pm 24.8 28.3 22.9 89 1.3 N 9 15 5 8 1007.7 1004.3 2.4
23/06:00pm 25.3 28.7 23.4 89 1.3 NW 11 17 6 9 1007.6 1004.2 2.2
23/05:30pm 25.6 29.4 23.5 88 1.5 NW 9 15 5 8 1007.4 1004.0 1.4
23/05:00pm 25.6 29.2 23.1 86 1.7 NNW 9 17 5 9 1006.8 1003.5 1.2
23/04:30pm 26.8 28.2 21.8 74 3.4 NNW 17 24 9 13 1006.1 1002.7 0.8
23/04:00pm 27.0 27.9 22.0 74 3.4 NNW 20 32 11 17 1005.6 1002.2 0.8
23/03:30pm 29.2 29.6 21.7 64 5.1 WNW 22 35 12 19 1005.3 1001.9 0.8
23/03:00pm 29.2 30.8 21.4 63 5.3 W 15 28 8 15 1005.1 1001.7 0.8
23/02:30pm 28.1 32.1 22.8 73 3.7 NNE 6 13 3 7 1005.4 1002.0 0.8
23/02:15pm 27.3 30.1 23.7 81 2.5 WNW 15 24 8 13 1005.7 1002.3 0.8
23/02:00pm 26.5 26.8 23.0 81 2.4 WNW 26 39 14 21 1005.3 1001.9 0.8
23/01:59pm 26.5 26.8 23.0 81 2.4 WNW 26 39 14 21 1005.3 1001.9 0.8
23/01:42pm 29.0 29.5 22.0 66 4.8 WNW 22 46 12 25 1005.3 1001.9 0.0
23/01:30pm 32.9 35.5 22.0 52 7.5 NW 11 15 6 8 1005.1 1001.7 0.0
23/01:00pm 32.7 33.8 21.2 50 7.9 NW 17 28 9 15 1005.7 1002.3 0.0
23/12:30pm 32.6 33.1 20.8 49 8.0 NNW 19 28 10 15 1005.9 1002.5 0.0
23/12:00pm 32.4 33.3 21.6 53 7.4 NW 19 28 10 15 1006.5 1003.1 0.0
23/11:30am 31.3 31.8 21.2 55 6.9 N 20 35 11 19 1007.2 1003.9 0.0
23/11:00am 31.3 32.0 21.5 56 6.7 NNW 20 30 11 16 1007.5 1004.1 0.0
23/10:30am 31.2 32.0 21.7 57 6.5 NNW 20 32 11 17 1007.8 1004.4 0.0
23/10:00am 30.5 31.2 21.6 59 6.1 N 20 32 11 17 1008.2 1004.8 0.0
23/09:30am 30.6 31.8 22.2 61 5.8 NNW 19 28 10 15 1008.3 1004.9 0.0
23/09:00am 28.9 29.5 21.4 64 5.1 NNW 20 32 11 17 1008.5 1005.1 0.2
23/08:30am 27.9 28.3 21.0 66 4.6 N 20 35 11 19 1008.7 1005.3 0.2
23/08:00am 27.9 28.7 21.4 67 4.4 N 19 32 10 17 1008.9 1005.6 0.2
23/07:30am 27.2 28.4 21.5 71 3.9 N 17 26 9 14 1008.9 1005.6 0.2
23/07:00am 26.1 27.7 21.5 76 3.1 N 15 26 8 14 1008.8 1005.4 0.2
23/06:30am 25.6 28.2 21.9 80 2.5 NNE 11 17 6 9 1008.4 1005.0 0.2
23/06:00am 25.2 27.8 21.9 82 2.2 NNE 11 13 6 7 1008.6 1005.2 0.2
23/05:30am 24.9 28.0 22.2 85 1.8 NE 9 11 5 6 1008.1 1004.7 0.2
23/05:00am 24.9 28.2 21.8 83 2.1 NNE 7 9 4 5 1007.7 1004.3 0.2
23/04:30am 25.1 28.0 21.8 82 2.2 N 9 13 5 7 1007.4 1004.0 0.2
23/04:00am 25.2 28.2 21.9 82 2.2 N 9 15 5 8 1007.5 1004.1 0.2
23/03:30am 25.2 28.7 22.1 83 2.1 NNE 7 9 4 5 1007.0 1003.7 0.2
23/03:00am 25.4 28.5 22.1 82 2.2 N 9 11 5 6 1007.2 1003.9 0.2
23/02:30am 25.5 28.9 22.0 81 2.4 NE 7 9 4 5 1006.9 1003.6 0.2
23/02:00am 25.6 28.9 21.9 80 2.5 NNE 7 11 4 6 1006.5 1003.1 0.2
23/01:30am 25.9 28.7 21.6 77 2.9 NE 9 11 5 6 1006.4 1003.0 0.2
23/01:00am 26.2 28.9 21.4 75 3.2 NNE 9 11 5 6 1006.4 1003.0 0.2
23/12:30am 26.5 29.2 21.3 73 3.5 NNE 9 13 5 7 1006.6 1003.3 0.2
23/12:00am 26.8 29.5 21.3 72 3.7 NNE 9 13 5 7 1007.2 1003.9 0.2
 
Date/Time
WST
Temp
°C
App
Temp
°C
Dew
Point
°C
Rel
Hum
%
Delta-T
°C
Wind Press
QNH
hPa
Press
MSL
hPa
Rain since
9am
mm
Dir  Spd
km/h
Gust
km/h
Spd
kts
Gust
kts
22/11:30pm 27.1 29.5 20.9 69 4.2 N 9 13 5 7 1007.9 1004.5 0.2
22/11:00pm 27.5 30.0 21.1 68 4.3 N 9 13 5 7 1008.4 1005.0 0.2
22/10:30pm 27.5 30.6 21.5 70 4.1 NNE 7 11 4 6 1009.0 1005.7 0.2
22/10:00pm 27.7 30.1 21.5 69 4.2 ENE 11 11 6 6 1009.0 1005.7 0.2
22/09:30pm 28.2 30.2 21.5 67 4.5 NNE 13 17 7 9 1009.0 1005.7 0.2
22/09:00pm 28.2 30.9 22.2 70 4.1 NE 11 15 6 8 1008.8 1005.4 0.2
22/08:30pm 28.7 31.8 22.2 68 4.5 NNE 9 13 5 7 1008.6 1005.2 0.2
22/08:00pm 29.0 32.2 21.7 64 5.0 NE 7 9 4 5 1008.3 1004.9 0.2
22/07:30pm 29.3 32.6 21.8 64 5.1 NE 7 9 4 5 1008.0 1004.6 0.2
22/07:00pm 29.6 33.1 22.1 64 5.2 NNE 7 9 4 5 1007.8 1004.4 0.2
22/06:30pm 30.0 32.7 21.4 60 5.9 NNE 9 13 5 7 1007.6 1004.2 0.2
22/06:00pm 30.5 32.9 21.6 59 6.1 N 11 19 6 10 1007.6 1004.2 0.2
22/05:30pm 30.7 32.9 21.8 59 6.1 N 13 19 7 10 1007.2 1003.9 0.2
22/05:00pm 31.2 33.3 21.7 57 6.5 NNE 13 19 7 10 1006.4 1003.0 0.2
22/04:30pm 31.6 32.7 20.5 51 7.5 NNE 15 20 8 11 1006.1 1002.7 0.2
22/04:00pm 32.3 33.4 21.2 52 7.6 NNE 17 26 9 14 1005.9 1002.5 0.2
22/03:30pm 32.3 33.6 22.4 56 6.9 NNE 19 28 10 15 1005.7 1002.3 0.2
22/03:00pm 31.8 32.5 21.6 54 7.0 NE 20 30 11 16 1005.7 1002.3 0.2
22/02:30pm 31.1 31.8 21.6 57 6.5 NE 20 28 11 15 1006.0 1002.6 0.2
22/02:00pm 31.5 32.3 21.7 56 6.7 NNE 20 30 11 16 1006.6 1003.3 0.2
22/01:30pm 31.0 32.3 22.3 60 6.0 NNE 19 28 10 15 1007.4 1004.0 0.2
22/01:00pm 30.4 31.8 21.8 60 5.9 NNE 17 26 9 14 1008.2 1004.8 0.2
22/12:30pm 30.9 32.5 23.8 66 5.0 NNE 22 30 12 16 1008.7 1005.3 0.2
22/12:00pm 29.9 31.5 23.3 67 4.6 NNE 20 30 11 16 1009.4 1006.1 0.2
22/11:30am 29.6 30.2 22.1 64 5.1 NE 22 35 12 19 1010.2 1006.8 0.2
22/11:00am 29.4 31.5 23.8 72 3.9 NE 19 26 10 14 1010.6 1007.2 0.2
22/10:30am 27.9 29.0 21.9 70 4.1 NE 19 26 10 14 1011.2 1007.9 0.2
22/10:00am 26.4 27.5 21.2 73 3.5 ENE 17 24 9 13 1011.7 1008.4 0.2
22/09:30am 25.5 26.3 20.7 75 3.2 ESE 17 20 9 11 1011.6 1008.3 0.0
22/09:00am 24.6 26.2 21.5 83 2.1 E 15 20 8 11 1011.9 1008.6 13.2
22/08:31am 23.4 24.2 21.7 90 1.1 ESE 20 30 11 16 1011.6 1008.3 13.2
22/08:30am 23.4 24.2 21.8 91 1.1 ESE 20 30 11 16 1011.6 1008.3 13.2
22/08:00am 22.8 23.5 21.6 93 0.8 ESE 20 28 11 15 1011.6 1008.3 13.2
22/07:30am 22.9 22.8 21.5 92 0.9 ESE 24 32 13 17 1012.0 1008.7 13.2
22/07:00am 23.0 23.8 21.8 93 0.8 ESE 20 24 11 13 1012.4 1009.1 13.2
22/06:30am 23.0 24.2 22.2 95 0.5 SE 19 24 10 13 1012.3 1009.0 13.2
22/06:06am 22.9 24.5 22.2 96 0.5 SE 17 24 9 13 1012.1 1008.8 13.2
22/06:00am 22.9 25.0 22.4 97 0.3 SE 15 22 8 12 1012.0 1008.7 13.2
22/05:30am 22.8 24.5 22.3 97 0.3 SE 17 20 9 11 1011.5 1008.2 12.2
22/05:24am 22.7 24.3 22.2 97 0.3 SE 17 20 9 11 1011.5 1008.2 11.8
22/05:19am 22.7 24.6 22.0 96 0.5 SE 15 20 8 11 1011.5 1008.2 11.4
22/05:03am 22.7 25.7 21.9 95 0.5 SSE 9 11 5 6 1011.3 1008.0 9.6
22/05:00am 22.7 25.7 21.9 95 0.5 SSE 9 11 5 6 1011.3 1008.0 9.0
22/04:30am 23.0 24.8 21.8 93 0.8 SSE 15 19 8 10 1010.7 1007.3 6.4
22/04:00am 23.4 25.8 22.2 93 0.8 S 13 17 7 9 1010.4 1007.0 5.4
22/03:30am 23.5 26.5 21.9 91 1.1 S 9 11 5 6 1010.4 1007.0 5.4
22/03:00am 23.7 25.6 21.4 87 1.5 S 13 19 7 10 1010.0 1006.6 4.8
22/02:30am 23.6 26.5 21.7 89 1.3 S 9 15 5 8 1009.5 1006.2 4.8
22/02:14am 23.5 26.3 21.6 89 1.3 SSW 9 15 5 8 1009.5 1006.2 4.8
22/02:00am 23.6 26.5 21.7 89 1.3 SSW 9 15 5 8 1009.4 1006.1 4.8
22/01:30am 23.8 26.3 21.7 88 1.4 S 11 13 6 7 1009.3 1006.0 4.8
22/01:00am 24.2 27.8 22.3 89 1.3 S 7 11 4 6 1009.3 1006.0 4.8
22/12:30am 23.9 27.2 21.8 88 1.4 ESE 7 11 4 6 1009.8 1006.5 4.8
22/12:00am 23.9 26.3 21.6 87 1.5 ESE 11 15 6 8 1010.0 1006.6 4.8
 
Date/Time
WST
Temp
°C
App
Temp
°C
Dew
Point
°C
Rel
Hum
%
Delta-T
°C
Wind Press
QNH
hPa
Press
MSL
hPa
Rain since
9am
mm
Dir  Spd
km/h
Gust
km/h
Spd
kts
Gust
kts
21/11:52pm 24.0 26.6 21.9 88 1.4 ESE 11 15 6 8 1010.2 1006.8 4.8
21/11:30pm 24.5 27.5 22.6 89 1.3 E 11 15 6 8 1010.5 1007.1 4.8
21/11:00pm 24.9 28.1 23.1 90 1.2 SE 11 15 6 8 1011.1 1007.8 4.8
21/10:59pm 24.9 28.1 23.1 90 1.2 SE 11 15 6 8 1011.1 1007.8 4.8
21/10:30pm 24.9 28.3 23.3 91 1.1 ESE 11 20 6 11 1011.3 1008.0 4.8
21/10:00pm 25.4 28.9 23.6 90 1.2 ESE 11 32 6 17 1011.6 1008.3 4.8
21/09:30pm 25.4 30.4 23.8 91 1.1 SW 4 7 2 4 1010.6 1007.2 4.8
21/09:00pm 25.4 31.1 23.8 91 1.1 CALM 0 0 0 0 1010.7 1007.3 4.8
21/08:30pm 25.2 30.3 23.4 90 1.2 E 2 6 1 3 1010.0 1006.6 4.8
21/08:00pm 24.8 28.4 23.0 90 1.2 S 9 11 5 6 1009.7 1006.4 4.8
21/07:30pm 24.8 28.8 22.7 88 1.4 SE 6 9 3 5 1009.7 1006.4 3.8
21/07:00pm 25.1 29.0 23.0 88 1.4 E 7 11 4 6 1009.7 1006.4 3.8
21/06:30pm 25.2 27.7 22.5 85 1.8 ENE 13 17 7 9 1009.8 1006.5 2.8
21/06:00pm 26.4 29.8 23.3 83 2.1 ESE 11 15 6 8 1009.5 1006.2 1.6
21/05:30pm 26.7 30.3 23.0 80 2.6 NNE 9 28 5 15 1008.1 1004.7 1.0
21/05:00pm 26.6 26.8 22.0 76 3.1 NNW 24 39 13 21 1006.5 1003.1 0.0
21/04:30pm 30.8 30.6 19.8 52 7.3 N 20 39 11 21 1006.0 1002.6 0.0
21/04:00pm 35.0 35.0 19.0 39 10.7 ENE 17 26 9 14 1005.1 1001.7 0.0
21/03:30pm 35.1 34.9 18.6 37 11.0 NE 17 24 9 13 1005.5 1002.1 0.0
21/03:00pm 35.5 36.9 21.0 42 10.0 NNE 15 24 8 13 1006.1 1002.7 0.0
21/02:30pm 35.1 35.1 20.2 41 10.1 NE 20 35 11 19 1006.7 1003.4 0.0
21/02:00pm 34.5 35.2 21.2 46 9.1 NE 19 28 10 15 1007.7 1004.3 0.0
21/01:30pm 33.6 33.5 20.0 44 9.2 NNE 20 30 11 16 1008.3 1004.9 0.0
21/01:00pm 33.3 34.2 21.5 50 8.1 NNE 19 24 10 13 1008.5 1005.1 0.0
21/12:30pm 33.9 34.9 21.7 49 8.4 NE 19 35 10 19 1008.5 1005.1 0.0
21/12:00pm 33.2 33.2 21.0 48 8.3 NE 22 35 12 19 1009.0 1005.7 0.0
21/11:30am 32.9 33.4 20.8 49 8.2 NNE 19 32 10 17 1009.4 1006.1 0.0
21/11:00am 31.9 33.7 22.6 58 6.5 NE 17 28 9 15 1010.0 1006.6 0.0
21/10:30am 31.2 33.0 22.5 60 6.0 NE 17 24 9 13 1010.7 1007.3 0.0
21/10:00am 30.3 31.3 22.2 62 5.6 NE 20 28 11 15 1011.5 1008.2 0.0
21/09:30am 30.0 31.2 22.2 63 5.4 NNE 19 28 10 15 1011.7 1008.4 0.0
21/09:00am 29.2 30.5 22.7 68 4.5 NE 20 26 11 14 1011.9 1008.6 11.2
21/08:30am 27.6 28.9 21.6 70 4.1 NNE 17 24 9 13 1012.0 1008.7 11.2
21/08:00am 26.9 29.7 22.3 76 3.1 NNE 11 15 6 8 1011.9 1008.6 11.2
21/07:30am 25.7 28.1 22.2 81 2.4 NNE 13 19 7 10 1012.0 1008.7 11.2
21/07:00am 25.1 27.3 21.8 82 2.2 NNE 13 17 7 9 1011.8 1008.5 11.2
21/06:30am 24.8 28.1 22.5 87 1.6 N 9 13 5 7 1011.5 1008.2 11.2
21/06:00am 24.5 28.3 22.8 90 1.2 NNE 7 9 4 5 1011.2 1007.9 11.2
21/05:30am 24.3 28.4 22.9 92 1.0 NNE 6 9 3 5 1010.9 1007.5 11.2
21/05:00am 24.2 27.8 23.0 93 0.8 NE 9 13 5 7 1010.6 1007.2 11.2
21/04:30am 24.2 27.9 22.5 90 1.2 NNE 7 11 4 6 1010.6 1007.2 11.2
21/04:00am 24.2 27.9 22.5 90 1.2 NE 7 9 4 5 1010.4 1007.0 11.2
21/03:30am 24.0 27.2 22.4 91 1.1 ENE 9 13 5 7 1010.3 1006.9 11.2
21/03:00am 23.9 26.7 22.3 91 1.1 ENE 11 15 6 8 1010.2 1006.8 11.2
21/02:30am 23.8 26.1 22.1 90 1.1 ENE 13 17 7 9 1010.0 1006.6 11.2
21/02:00am 23.8 26.5 22.1 90 1.2 ENE 11 13 6 7 1010.2 1006.8 11.2
21/01:30am 23.9 26.7 22.3 91 1.1 ENE 11 15 6 8 1010.4 1007.0 11.2
21/01:00am 23.9 26.6 22.2 90 1.2 E 11 13 6 7 1010.6 1007.2 11.2
21/12:30am 23.9 26.2 22.0 89 1.3 ESE 13 17 7 9 1010.9 1007.5 11.2
21/12:00am 23.9 27.2 22.5 92 1.0 SE 9 13 5 7 1011.5 1008.2 11.2
 
Date/Time
WST
Temp
°C
App
Temp
°C
Dew
Point
°C
Rel
Hum
%
Delta-T
°C
Wind Press
QNH
hPa
Press
MSL
hPa
Rain since
9am
mm
Dir  Spd
km/h
Gust
km/h
Spd
kts
Gust
kts
20/11:30pm 23.7 27.4 22.5 93 0.8 ESE 7 11 4 6 1012.3 1009.0 11.2
20/11:00pm 23.5 27.0 21.9 91 1.1 S 6 7 3 4 1012.8 1009.4 11.2

Other formats

Comma delimited format used in spreadsheet applications
http://www.bom.gov.au/fwo/IDW60801/IDW60801.94212.axf

JavaScript Object Notation format (JSON) in row-major order
http://www.bom.gov.au/fwo/IDW60801/IDW60801.94212.json

Data quality

Most of these data are generated automatically and are frequently updated. Quality checks on data are not normally performed. It is possible for incorrect values to appear. Refer to information at About Latest Weather Observations and please check the disclaimer before using these data.